Time;durP1;ratioP1;P1;durP2;ratioP2;P2;SDS_P1;SDS_P2;PMS_P1;PMS_P2;Temp;Humidity;BMP_temperature;BMP_pressure;BME280_temperature;BME280_humidity;BME280_pressure;Samples;Min_cycle;Max_cycle;Signal;HPM_P1;HPM_P2
2024/01/13 00:01:16;;;;;;;37.50;17.60;;;-1.10;99.90;;;;;;4986679;28;20295;-59
2024/01/13 00:03:43;;;;;;;35.63;17.10;;;-1.30;99.90;;;;;;4988996;28;20206;-61
2024/01/13 00:06:10;;;;;;;39.00;18.73;;;-1.00;99.90;;;;;;4993602;28;20206;-61
2024/01/13 00:08:39;;;;;;;38.80;18.03;;;-1.20;99.90;;;;;;4992634;28;20208;-59
2024/01/13 00:11:06;;;;;;;30.60;15.57;;;-1.30;99.90;;;;;;4992787;28;20229;-61
2024/01/13 00:13:33;;;;;;;35.00;17.93;;;;;;;;;;4984868;28;20208;-61
2024/01/13 00:16:00;;;;;;;32.70;17.70;;;;;;;;;;4992141;28;20282;-61
2024/01/13 00:18:28;;;;;;;34.60;16.50;;;;;;;;;;4992825;28;20754;-61
2024/01/13 00:20:54;;;;;;;39.30;18.70;;;-1.30;99.90;;;;;;4995869;28;20227;-61
2024/01/13 00:23:21;;;;;;;37.03;18.53;;;-1.10;99.90;;;;;;4990130;28;20255;-61
2024/01/13 00:25:50;;;;;;;34.33;17.33;;;-1.20;99.90;;;;;;4991731;28;20265;-61
2024/01/13 00:28:17;;;;;;;31.93;17.03;;;-1.30;99.90;;;;;;4990736;28;20251;-60
2024/01/13 00:30:44;;;;;;;34.40;18.67;;;-0.80;99.90;;;;;;4989741;28;20720;-61
2024/01/13 00:33:11;;;;;;;38.13;17.60;;;;;;;;;;4992422;28;20204;-61
2024/01/13 00:35:39;;;;;;;42.30;18.67;;;;;;;;;;4996256;28;20608;-60
2024/01/13 00:38:06;;;;;;;37.80;18.53;;;-1.30;99.90;;;;;;4990669;28;20316;-61
2024/01/13 00:40:33;;;;;;;37.63;18.63;;;;;;;;;;4992987;28;20262;-60
2024/01/13 00:43:01;;;;;;;36.67;17.27;;;;;;;;;;4989243;28;20259;-61
2024/01/13 00:45:29;;;;;;;33.57;16.87;;;;;;;;;;4992728;28;20204;-61
2024/01/13 00:47:56;;;;;;;33.10;15.97;;;;;;;;;;4990155;28;20253;-60
2024/01/13 00:50:24;;;;;;;41.43;17.70;;;;;;;;;;4992272;28;20207;-60
2024/01/13 00:52:51;;;;;;;45.43;19.07;;;;;;;;;;4989493;28;20261;-61
2024/01/13 00:55:18;;;;;;;39.37;16.70;;;;;;;;;;4996631;28;20209;-61
2024/01/13 00:57:45;;;;;;;38.60;18.63;;;;;;;;;;4991005;28;20645;-60
2024/01/13 01:00:15;;;;;;;36.63;16.77;;;;;;;;;;4998763;28;20206;-60
2024/01/13 01:02:42;;;;;;;32.77;16.63;;;;;;;;;;5002857;28;20233;-60
2024/01/13 01:05:09;;;;;;;39.43;17.00;;;;;;;;;;4986863;28;20211;-60
2024/01/13 01:07:36;;;;;;;36.00;17.27;;;;;;;;;;4988068;28;20270;-60
2024/01/13 01:10:04;;;;;;;39.20;15.57;;;;;;;;;;4992191;28;20257;-61
2024/01/13 01:12:31;;;;;;;37.60;16.97;;;;;;;;;;4987650;28;20230;-60
2024/01/13 01:14:58;;;;;;;40.83;18.13;;;;;;;;;;4999713;28;20214;-61
2024/01/13 01:17:27;;;;;;;36.17;17.37;;;;;;;;;;4989744;28;20225;-61
2024/01/13 01:19:54;;;;;;;35.90;16.77;;;;;;;;;;4992132;28;20210;-61
2024/01/13 01:22:21;;;;;;;36.70;17.90;;;-1.30;99.90;;;;;;4989864;28;20232;-60
2024/01/13 01:24:48;;;;;;;42.40;20.10;;;-1.20;99.90;;;;;;4996360;28;20204;-61
2024/01/13 01:27:15;;;;;;;38.20;18.67;;;-1.40;99.90;;;;;;4993335;28;20203;-60
2024/01/13 01:29:42;;;;;;;41.90;18.50;;;-1.20;99.90;;;;;;4997770;28;20255;-60
2024/01/13 01:32:09;;;;;;;38.33;16.97;;;;;;;;;;5001820;28;20224;-60
2024/01/13 01:34:38;;;;;;;36.20;17.53;;;;;;;;;;5000697;28;20261;-61
2024/01/13 01:37:09;;;;;;;40.80;18.93;;;;;;;;;;4992836;28;20649;-61
2024/01/13 01:39:36;;;;;;;36.43;17.50;;;;;;;;;;4995132;28;20201;-60
2024/01/13 01:42:07;;;;;;;38.47;18.23;;;;;;;;;;4988936;28;20238;-60
2024/01/13 01:44:34;;;;;;;32.97;15.97;;;;;;;;;;5002649;28;20211;-60
2024/01/13 01:47:02;;;;;;;40.47;16.00;;;;;;;;;;5002139;28;20205;-60
2024/01/13 01:49:29;;;;;;;34.83;19.03;;;-1.60;99.90;;;;;;4997472;28;20202;-61
2024/01/13 01:51:57;;;;;;;30.17;14.83;;;-1.20;99.90;;;;;;4995722;28;20258;-61
2024/01/13 01:54:24;;;;;;;39.33;17.53;;;-1.20;99.90;;;;;;4997607;28;20278;-61
2024/01/13 01:56:51;;;;;;;33.73;15.50;;;-1.20;99.90;;;;;;5001079;28;20222;-61
2024/01/13 01:59:18;;;;;;;37.73;17.60;;;-1.10;99.90;;;;;;4998384;28;20206;-61
2024/01/13 02:01:47;;;;;;;39.33;17.30;;;-1.30;99.90;;;;;;5005314;28;20284;-60
2024/01/13 02:04:14;;;;;;;34.03;17.17;;;-1.40;99.90;;;;;;4998483;28;20211;-60
2024/01/13 02:06:41;;;;;;;31.83;16.23;;;-1.30;99.90;;;;;;5000465;28;20206;-60
2024/01/13 02:09:12;;;;;;;34.03;17.20;;;-1.50;99.90;;;;;;5003159;28;20254;-61
2024/01/13 02:11:39;;;;;;;38.90;18.00;;;-1.50;99.90;;;;;;4992184;28;20221;-60
2024/01/13 02:14:06;;;;;;;38.17;17.63;;;-1.40;99.90;;;;;;4995302;28;20748;-60
2024/01/13 02:16:33;;;;;;;34.30;15.10;;;;;;;;;;4996559;28;20299;-60
2024/01/13 02:19:00;;;;;;;39.77;17.00;;;-1.30;99.90;;;;;;4997167;28;20212;-61
2024/01/13 02:21:27;;;;;;;38.83;18.20;;;-1.50;99.90;;;;;;4995013;28;20225;-60
2024/01/13 02:23:56;;;;;;;36.07;16.37;;;;;;;;;;5005517;28;20252;-61
2024/01/13 02:26:23;;;;;;;36.00;17.30;;;-1.20;99.90;;;;;;4992998;28;20668;-60
2024/01/13 02:28:49;;;;;;;40.70;17.93;;;-1.90;99.90;;;;;;4993033;28;20197;-61
2024/01/13 02:31:17;;;;;;;37.33;16.43;;;;;;;;;;5001391;28;20250;-60
2024/01/13 02:33:44;;;;;;;42.63;17.83;;;-1.20;99.90;;;;;;4992936;28;20205;-60
2024/01/13 02:36:11;;;;;;;35.10;17.37;;;;;;;;;;5002180;28;20217;-61
2024/01/13 02:38:38;;;;;;;34.77;17.00;;;;;;;;;;4993067;28;20222;-61
2024/01/13 02:41:07;;;;;;;37.20;17.13;;;;;;;;;;4992393;28;20721;-60
2024/01/13 02:43:34;;;;;;;36.53;15.93;;;;;;;;;;5000467;28;20623;-60
2024/01/13 02:46:02;;;;;;;35.67;16.73;;;;;;;;;;4993417;28;20218;-60
2024/01/13 02:48:35;;;;;;;34.80;16.70;;;-1.70;99.90;;;;;;5004842;28;20253;-61
2024/01/13 02:51:03;;;;;;;37.27;16.23;;;-1.50;99.90;;;;;;5000970;28;20237;-61
2024/01/13 02:53:30;;;;;;;38.90;17.63;;;-1.30;99.90;;;;;;5013587;28;20208;-61
2024/01/13 02:55:57;;;;;;;41.63;18.13;;;-1.30;99.90;;;;;;5014478;28;20636;-61
2024/01/13 02:58:25;;;;;;;34.63;16.70;;;-1.70;99.90;;;;;;5013308;28;20774;-61
2024/01/13 03:00:52;;;;;;;42.73;19.10;;;-1.40;99.90;;;;;;5002274;28;20241;-61
2024/01/13 03:03:19;;;;;;;37.50;17.40;;;-1.60;99.90;;;;;;5012895;28;20233;-60
2024/01/13 03:05:46;;;;;;;39.47;18.27;;;-1.60;99.90;;;;;;5013957;28;20209;-60
2024/01/13 03:08:13;;;;;;;40.67;17.70;;;-1.40;99.90;;;;;;5012369;28;20260;-61
2024/01/13 03:10:40;;;;;;;37.00;17.87;;;-1.00;99.90;;;;;;5013564;28;20259;-61
2024/01/13 03:13:07;;;;;;;36.10;15.70;;;-1.40;99.90;;;;;;5003265;28;20209;-61
2024/01/13 03:15:35;;;;;;;46.43;18.03;;;-1.50;99.90;;;;;;5004170;28;20251;-62
2024/01/13 03:18:02;;;;;;;42.37;18.60;;;-1.50;99.90;;;;;;4995200;28;20236;-61
2024/01/13 03:20:29;;;;;;;44.10;18.53;;;-1.40;99.90;;;;;;4993326;28;20206;-61
2024/01/13 03:22:56;;;;;;;36.20;17.43;;;-1.40;99.90;;;;;;4994645;28;20267;-61
2024/01/13 03:25:23;;;;;;;32.87;15.33;;;-1.60;99.90;;;;;;5001107;28;20199;-61
2024/01/13 03:27:50;;;;;;;39.80;17.60;;;-1.40;99.90;;;;;;5009974;28;20205;-60
2024/01/13 03:30:17;;;;;;;35.63;15.57;;;-1.40;99.90;;;;;;5010239;28;20206;-60
2024/01/13 03:32:46;;;;;;;37.90;17.43;;;-1.80;99.90;;;;;;4993024;28;20673;-60
2024/01/13 03:35:13;;;;;;;36.13;16.23;;;-1.40;99.90;;;;;;4993321;28;20260;-60
2024/01/13 03:37:39;;;;;;;37.87;18.10;;;-1.40;99.90;;;;;;4991177;28;20265;-61
2024/01/13 03:40:08;;;;;;;37.03;15.90;;;-1.60;99.90;;;;;;5009892;28;20670;-60
2024/01/13 03:42:35;;;;;;;36.20;16.33;;;-1.60;99.90;;;;;;5013052;28;20226;-61
2024/01/13 03:45:02;;;;;;;35.10;17.03;;;-1.40;99.90;;;;;;5012384;28;20263;-61
2024/01/13 03:47:29;;;;;;;39.10;15.63;;;;;;;;;;5000974;28;20239;-60
2024/01/13 03:49:57;;;;;;;37.90;16.33;;;-1.70;99.90;;;;;;5006920;28;20205;-61
2024/01/13 03:52:24;;;;;;;38.03;17.23;;;-1.40;99.90;;;;;;4994363;28;20714;-61
2024/01/13 03:54:51;;;;;;;39.57;17.57;;;-1.30;99.90;;;;;;4997715;28;20259;-62
2024/01/13 03:57:18;;;;;;;34.03;16.80;;;-1.40;99.90;;;;;;4990930;28;20298;-60
2024/01/13 03:59:46;;;;;;;33.83;16.97;;;-1.60;99.90;;;;;;4996985;28;20206;-61
2024/01/13 04:02:13;;;;;;;31.17;15.33;;;-1.40;99.90;;;;;;4994802;28;20285;-61
2024/01/13 04:04:40;;;;;;;36.50;16.80;;;-1.50;99.90;;;;;;4999799;28;20737;-60
2024/01/13 04:07:11;;;;;;;36.50;17.10;;;-1.60;99.90;;;;;;4992714;28;20678;-61
2024/01/13 04:09:39;;;;;;;43.03;16.03;;;-1.80;99.90;;;;;;4994858;28;20209;-61
2024/01/13 04:12:10;;;;;;;37.67;16.50;;;-1.40;99.90;;;;;;4991887;28;20236;-61
2024/01/13 04:14:36;;;;;;;32.37;15.50;;;-1.60;99.90;;;;;;4984918;28;20270;-61
2024/01/13 04:17:04;;;;;;;34.73;16.30;;;-1.70;99.90;;;;;;4998148;28;20203;-61
2024/01/13 04:19:30;;;;;;;37.03;16.20;;;-1.40;99.90;;;;;;4992568;28;20226;-61
2024/01/13 04:21:57;;;;;;;38.83;18.10;;;-1.80;99.90;;;;;;4992046;28;20224;-61
2024/01/13 04:24:26;;;;;;;32.03;16.13;;;-1.80;99.90;;;;;;4993871;28;20201;-61
2024/01/13 04:26:53;;;;;;;38.70;16.47;;;-1.70;99.90;;;;;;4992646;28;20349;-60
2024/01/13 04:29:20;;;;;;;39.53;17.20;;;-1.60;99.90;;;;;;4992304;28;20624;-60
2024/01/13 04:31:46;;;;;;;34.83;17.30;;;-1.40;99.90;;;;;;4991990;28;20272;-60
2024/01/13 04:34:13;;;;;;;33.63;16.30;;;-1.50;99.90;;;;;;4992323;28;20204;-61
2024/01/13 04:36:40;;;;;;;28.97;15.30;;;-1.60;99.90;;;;;;4992722;28;20198;-61
2024/01/13 04:39:07;;;;;;;32.60;15.93;;;-1.70;99.90;;;;;;4992538;28;20222;-61
2024/01/13 04:41:41;;;;;;;31.97;15.90;;;-1.90;99.90;;;;;;4992088;28;20721;-61
2024/01/13 04:44:08;;;;;;;30.50;14.57;;;-1.60;99.90;;;;;;4992689;28;20557;-61
2024/01/13 04:46:35;;;;;;;30.27;16.23;;;-1.70;99.90;;;;;;4993073;28;20200;-60
2024/01/13 04:49:02;;;;;;;35.60;16.17;;;-1.90;99.90;;;;;;4992492;28;20635;-60
2024/01/13 04:51:29;;;;;;;35.87;15.60;;;-1.90;99.90;;;;;;4991458;28;20229;-61
2024/01/13 04:53:56;;;;;;;40.07;16.20;;;-1.90;99.90;;;;;;4993353;28;20253;-61
2024/01/13 04:56:23;;;;;;;39.27;18.73;;;-1.80;99.90;;;;;;4991222;28;20241;-60
2024/01/13 04:58:52;;;;;;;38.97;17.17;;;-1.80;99.90;;;;;;4992239;28;20256;-60
2024/01/13 05:01:19;;;;;;;37.47;16.53;;;-1.70;99.90;;;;;;4991326;28;20241;-61
2024/01/13 05:03:46;;;;;;;35.43;16.23;;;-1.50;99.90;;;;;;4992278;28;20250;-61
2024/01/13 05:06:15;;;;;;;32.50;15.93;;;-1.80;99.90;;;;;;4992097;28;20205;-60
2024/01/13 05:08:42;;;;;;;31.53;15.17;;;-1.70;99.90;;;;;;4992102;28;20280;-60
2024/01/13 05:11:09;;;;;;;35.80;15.93;;;-1.60;99.90;;;;;;4991411;28;20284;-61
2024/01/13 05:13:36;;;;;;;33.60;16.87;;;-1.70;99.90;;;;;;4989660;28;20232;-61
2024/01/13 05:16:05;;;;;;;32.63;14.73;;;-1.70;99.90;;;;;;4995700;28;20269;-61
2024/01/13 05:18:32;;;;;;;28.10;15.40;;;-1.80;99.90;;;;;;4992125;28;20317;-60
2024/01/13 05:20:59;;;;;;;35.90;15.93;;;-1.70;99.90;;;;;;4991170;28;20596;-61
2024/01/13 05:23:26;;;;;;;38.87;16.67;;;-1.40;99.90;;;;;;4989740;28;20301;-60
2024/01/13 05:25:53;;;;;;;32.30;14.80;;;-1.60;99.90;;;;;;4992051;28;20252;-60
2024/01/13 05:28:20;;;;;;;27.87;13.20;;;-1.50;99.90;;;;;;4992084;28;20200;-61
2024/01/13 05:30:47;;;;;;;31.73;14.97;;;-1.70;99.90;;;;;;4991583;28;20225;-60
2024/01/13 05:33:15;;;;;;;29.47;14.13;;;-1.60;99.90;;;;;;4991261;28;20241;-60
2024/01/13 05:35:42;;;;;;;30.50;15.00;;;-1.90;99.90;;;;;;4991727;28;20209;-61
2024/01/13 05:38:09;;;;;;;37.20;15.70;;;-1.60;99.90;;;;;;4991858;28;20217;-61
2024/01/13 05:40:40;;;;;;;31.27;14.97;;;-1.90;99.90;;;;;;4991289;28;20206;-61
2024/01/13 05:43:07;;;;;;;36.63;14.90;;;-1.50;99.90;;;;;;4991850;28;20209;-61
2024/01/13 05:45:34;;;;;;;31.37;14.07;;;-1.90;99.90;;;;;;4991860;28;20206;-61
2024/01/13 05:48:01;;;;;;;32.30;14.93;;;-1.50;99.90;;;;;;4998584;28;20202;-60
2024/01/13 05:50:30;;;;;;;29.20;15.17;;;-1.50;99.90;;;;;;4990903;28;20296;-60
2024/01/13 05:52:57;;;;;;;28.80;14.80;;;-1.60;99.90;;;;;;4993220;28;20210;-60
2024/01/13 05:55:24;;;;;;;29.03;15.60;;;;;;;;;;4991849;28;20289;-60
2024/01/13 05:57:52;;;;;;;31.30;13.90;;;-1.90;99.90;;;;;;4991749;28;20201;-61
2024/01/13 06:00:19;;;;;;;32.33;15.70;;;;;;;;;;4990943;28;20665;-61
2024/01/13 06:02:47;;;;;;;36.20;15.67;;;;;;;;;;4992176;28;20226;-61
2024/01/13 06:05:14;;;;;;;27.23;13.63;;;;;;;;;;4991715;28;20210;-60
2024/01/13 06:07:44;;;;;;;32.67;16.20;;;;;;;;;;4992252;28;20238;-61
2024/01/13 06:10:11;;;;;;;28.70;14.23;;;;;;;;;;4995251;28;20704;-61
2024/01/13 06:12:38;;;;;;;28.37;14.00;;;-1.70;99.90;;;;;;4997492;28;20222;-61
2024/01/13 06:15:07;;;;;;;28.93;14.83;;;-1.70;99.90;;;;;;4995301;28;20212;-61
2024/01/13 06:17:34;;;;;;;29.63;14.63;;;-1.80;99.90;;;;;;4995993;28;20202;-61
2024/01/13 06:20:01;;;;;;;28.90;14.00;;;-1.80;99.90;;;;;;4997235;28;20221;-61
2024/01/13 06:22:28;;;;;;;31.30;15.60;;;-1.90;99.90;;;;;;4995626;28;20226;-61
2024/01/13 06:24:56;;;;;;;30.03;14.83;;;-2.00;99.90;;;;;;5004337;28;20210;-60
2024/01/13 06:27:23;;;;;;;28.77;14.77;;;-1.70;99.90;;;;;;4994971;28;20640;-60
2024/01/13 06:29:50;;;;;;;29.77;14.50;;;-1.90;99.90;;;;;;5003439;28;20221;-61
2024/01/13 06:32:17;;;;;;;33.70;13.60;;;-1.70;99.90;;;;;;5011609;28;20217;-60
2024/01/13 06:34:44;;;;;;;27.50;13.67;;;-2.10;99.90;;;;;;4997289;28;20198;-60
2024/01/13 06:37:11;;;;;;;28.60;13.67;;;-2.10;99.90;;;;;;4999441;28;20333;-60
2024/01/13 06:39:38;;;;;;;26.73;12.97;;;-2.00;99.90;;;;;;4993849;28;20305;-60
2024/01/13 06:42:08;;;;;;;21.97;12.73;;;-1.80;99.90;;;;;;4991804;28;20257;-60
2024/01/13 06:44:35;;;;;;;29.90;14.10;;;-2.10;99.90;;;;;;4992511;28;20201;-61
2024/01/13 06:47:06;;;;;;;24.33;11.77;;;-2.30;99.90;;;;;;4992841;28;20268;-60
2024/01/13 06:49:33;;;;;;;26.60;12.93;;;-2.00;99.90;;;;;;4992341;28;20256;-61
2024/01/13 06:52:00;;;;;;;30.67;14.27;;;-2.10;99.90;;;;;;4991789;28;20237;-60
2024/01/13 06:54:27;;;;;;;30.23;13.77;;;-2.10;99.90;;;;;;4995837;28;20635;-60
2024/01/13 06:56:54;;;;;;;28.33;12.20;;;-2.10;99.90;;;;;;4993426;28;20666;-61
2024/01/13 06:59:23;;;;;;;27.37;12.87;;;-2.40;99.90;;;;;;4993941;28;20234;-61
2024/01/13 07:01:50;;;;;;;29.67;14.07;;;-2.20;99.90;;;;;;4995126;28;20616;-60
2024/01/13 07:04:17;;;;;;;35.27;15.13;;;-2.10;99.90;;;;;;4994466;28;20210;-62
2024/01/13 07:06:44;;;;;;;34.90;15.40;;;-2.70;99.90;;;;;;5001474;28;20747;-60
2024/01/13 07:09:11;;;;;;;31.73;15.87;;;-2.30;99.90;;;;;;4994209;28;20730;-60
2024/01/13 07:11:38;;;;;;;36.43;16.13;;;-2.20;99.90;;;;;;4992479;28;20229;-61
2024/01/13 07:14:05;;;;;;;37.53;15.90;;;-2.30;99.90;;;;;;4994871;28;20213;-61
2024/01/13 07:16:34;;;;;;;31.00;14.53;;;-2.30;99.90;;;;;;4987957;28;20201;-61
2024/01/13 07:19:00;;;;;;;35.33;15.50;;;-2.10;99.90;;;;;;4991892;28;20579;-60
2024/01/13 07:21:29;;;;;;;31.23;14.40;;;-2.20;99.90;;;;;;4991611;28;20226;-60
2024/01/13 07:23:56;;;;;;;44.10;18.93;;;-2.00;99.90;;;;;;4991223;28;20208;-61
2024/01/13 07:26:22;;;;;;;32.53;15.53;;;-2.00;99.90;;;;;;4993299;28;20201;-61
2024/01/13 07:28:49;;;;;;;40.10;17.03;;;-2.20;99.90;;;;;;4991417;28;20262;-62
2024/01/13 07:31:17;;;;;;;36.77;16.27;;;-2.30;99.90;;;;;;4992289;28;20268;-61
2024/01/13 07:33:45;;;;;;;29.43;14.60;;;-2.20;99.90;;;;;;4993234;28;20203;-61
2024/01/13 07:36:12;;;;;;;34.97;16.17;;;-2.20;99.90;;;;;;4993485;28;20205;-61
2024/01/13 07:38:40;;;;;;;36.00;15.20;;;-2.40;99.90;;;;;;4985207;28;20217;-61
2024/01/13 07:41:08;;;;;;;35.37;16.33;;;-2.10;99.90;;;;;;4992377;28;20233;-61
2024/01/13 07:43:36;;;;;;;34.47;16.43;;;-2.20;99.90;;;;;;4993310;28;20641;-61
2024/01/13 07:46:03;;;;;;;34.73;15.53;;;-1.80;99.90;;;;;;4993409;28;20214;-61
2024/01/13 07:48:30;;;;;;;39.03;16.37;;;-2.10;99.90;;;;;;4992954;28;20229;-61
2024/01/13 07:50:59;;;;;;;36.73;17.07;;;-2.00;99.90;;;;;;4992237;28;20586;-61
2024/01/13 07:53:26;;;;;;;38.67;17.60;;;-1.70;99.90;;;;;;4992803;28;20202;-60
2024/01/13 07:55:53;;;;;;;37.13;17.77;;;-2.10;99.90;;;;;;4994362;28;20498;-62
2024/01/13 07:58:20;;;;;;;32.00;15.17;;;-2.00;99.90;;;;;;4993058;28;20700;-63
2024/01/13 08:00:46;;;;;;;36.80;17.07;;;-1.90;99.90;;;;;;4991932;28;20280;-65
2024/01/13 08:03:14;;;;;;;34.47;15.77;;;-1.60;99.90;;;;;;4993155;28;20260;-61
2024/01/13 08:05:41;;;;;;;38.67;16.40;;;-1.60;99.90;;;;;;4992045;28;20205;-60
2024/01/13 08:08:10;;;;;;;36.10;15.37;;;-1.70;99.90;;;;;;4992754;28;20213;-66
2024/01/13 08:10:38;;;;;;;33.67;16.00;;;-1.70;99.90;;;;;;4991733;28;20265;-71
2024/01/13 08:13:05;;;;;;;34.93;15.57;;;-1.60;99.90;;;;;;4992104;28;20685;-71
2024/01/13 08:15:32;;;;;;;33.73;15.43;;;-1.70;99.90;;;;;;4992195;28;20203;-72
2024/01/13 08:17:59;;;;;;;31.30;15.80;;;-1.50;99.90;;;;;;4995131;28;20562;-72
2024/01/13 08:20:26;;;;;;;37.70;15.43;;;-1.70;99.90;;;;;;4992822;28;20224;-71
2024/01/13 08:22:53;;;;;;;40.80;15.83;;;-1.70;99.90;;;;;;4992343;28;20256;-74
2024/01/13 08:25:22;;;;;;;40.30;16.87;;;-1.70;99.90;;;;;;5000716;28;20204;-69
2024/01/13 08:27:48;;;;;;;36.27;16.83;;;-1.70;99.90;;;;;;4994835;28;20201;-66
2024/01/13 08:30:16;;;;;;;30.70;14.67;;;-1.30;99.90;;;;;;5002552;28;20201;-67
2024/01/13 08:32:43;;;;;;;38.17;19.50;;;-1.60;99.90;;;;;;4991576;28;20306;-67
2024/01/13 08:35:10;;;;;;;34.07;16.23;;;-1.70;99.90;;;;;;4995833;28;20213;-68
2024/01/13 08:37:37;;;;;;;34.87;16.47;;;-1.50;99.90;;;;;;4992676;28;20196;-68
2024/01/13 08:40:05;;;;;;;35.43;16.33;;;-1.10;99.90;;;;;;4993245;28;20234;-69
2024/01/13 08:42:33;;;;;;;33.30;15.20;;;-1.30;99.90;;;;;;4992374;28;20260;-67
2024/01/13 08:45:00;;;;;;;37.63;15.80;;;-1.20;99.90;;;;;;4992377;28;20205;-68
2024/01/13 08:47:27;;;;;;;38.27;16.53;;;-1.20;99.90;;;;;;5002952;28;20690;-67
2024/01/13 08:49:55;;;;;;;34.03;17.60;;;;;;;;;;4991503;28;20196;-66
2024/01/13 08:52:22;;;;;;;35.10;17.00;;;-1.20;99.90;;;;;;4997618;28;20320;-69
2024/01/13 08:54:49;;;;;;;42.23;17.70;;;-1.30;99.90;;;;;;4991676;28;20259;-64
2024/01/13 08:57:16;;;;;;;36.20;16.77;;;-1.00;99.90;;;;;;4991761;28;20240;-65
2024/01/13 08:59:44;;;;;;;38.70;17.57;;;;;;;;;;4983896;28;20698;-67
2024/01/13 09:02:11;;;;;;;34.60;16.53;;;-1.30;99.90;;;;;;4953232;28;1106340;-65
2024/01/13 09:04:38;;;;;;;36.90;16.60;;;-0.90;99.90;;;;;;4992512;28;20202;-65
2024/01/13 09:07:08;;;;;;;36.67;17.20;;;-1.20;99.90;;;;;;4993244;28;20257;-65
2024/01/13 09:09:35;;;;;;;50.63;18.20;;;-1.00;99.90;;;;;;4992410;28;20201;-66
2024/01/13 09:12:02;;;;;;;35.10;15.80;;;-1.10;99.90;;;;;;4991555;28;20295;-66
2024/01/13 09:14:29;;;;;;;45.73;18.80;;;;;;;;;;4992188;28;20360;-66
2024/01/13 09:16:57;;;;;;;40.60;18.13;;;-0.80;99.90;;;;;;4992413;28;20264;-66
2024/01/13 09:19:24;;;;;;;40.77;16.73;;;-0.60;99.90;;;;;;4995119;28;20227;-66
2024/01/13 09:21:51;;;;;;;35.37;16.73;;;-0.90;99.90;;;;;;4993384;28;20225;-65
2024/01/13 09:24:18;;;;;;;48.33;18.60;;;-0.90;99.90;;;;;;5003089;28;20252;-68
2024/01/13 09:26:46;;;;;;;34.53;16.03;;;-0.70;99.90;;;;;;4991952;28;20200;-70
2024/01/13 09:29:13;;;;;;;36.43;15.43;;;-0.30;99.90;;;;;;4996900;28;20198;-65
2024/01/13 09:31:40;;;;;;;40.57;16.83;;;-0.50;99.90;;;;;;4991733;28;20222;-64
2024/01/13 09:34:09;;;;;;;35.30;15.70;;;-0.60;99.90;;;;;;4989124;28;20672;-66
2024/01/13 09:36:36;;;;;;;37.53;17.27;;;-0.40;99.90;;;;;;5005612;28;20210;-67
2024/01/13 09:39:03;;;;;;;39.60;16.97;;;;;;;;;;4992207;28;20666;-64
2024/01/13 09:41:30;;;;;;;34.03;15.80;;;-0.80;99.90;;;;;;4993235;28;20221;-66
2024/01/13 09:44:02;;;;;;;32.07;16.70;;;;;;;;;;4995124;28;20204;-65
2024/01/13 09:46:30;;;;;;;33.47;16.90;;;-0.70;99.90;;;;;;4995720;28;20215;-67
2024/01/13 09:48:57;;;;;;;37.33;17.37;;;;;;;;;;4995831;28;20252;-59
2024/01/13 09:51:27;;;;;;;42.07;18.03;;;-0.80;99.90;;;;;;4994680;28;20230;-58
2024/01/13 09:53:56;;;;;;;34.80;16.70;;;;;;;;;;4995394;28;20244;-63
2024/01/13 09:56:28;;;;;;;32.97;14.93;;;-0.80;99.90;;;;;;5003237;28;20209;-67
2024/01/13 09:58:56;;;;;;;33.33;15.43;;;-0.70;99.90;;;;;;4995485;28;20256;-69
2024/01/13 10:01:23;;;;;;;39.13;17.60;;;-0.80;99.90;;;;;;4994596;28;20283;-66
2024/01/13 10:03:50;;;;;;;40.00;16.33;;;-1.10;99.90;;;;;;4995183;28;20203;-66
2024/01/13 10:06:18;;;;;;;39.90;17.43;;;-1.20;99.90;;;;;;4995099;28;20209;-63
2024/01/13 10:08:47;;;;;;;36.00;16.17;;;-1.20;99.90;;;;;;4995238;28;20202;-68
2024/01/13 10:11:14;;;;;;;40.33;15.57;;;-1.50;99.90;;;;;;4994496;28;20230;-67
2024/01/13 10:13:42;;;;;;;34.13;15.07;;;-1.40;99.90;;;;;;4996067;28;20262;-67
2024/01/13 10:16:09;;;;;;;35.93;14.87;;;-1.80;99.90;;;;;;4995071;28;20209;-66
2024/01/13 10:18:39;;;;;;;34.87;14.30;;;-1.70;99.90;;;;;;4995210;28;20204;-69
2024/01/13 10:21:06;;;;;;;28.67;12.57;;;-1.50;99.90;;;;;;4993884;28;20312;-63
2024/01/13 10:23:33;;;;;;;35.27;14.87;;;-1.00;99.90;;;;;;4994932;28;20301;-63
2024/01/13 10:26:02;;;;;;;30.10;12.27;;;-0.60;99.90;;;;;;4995288;28;20206;-64
2024/01/13 10:28:29;;;;;;;30.87;14.50;;;-0.50;99.90;;;;;;4998865;28;20201;-64
2024/01/13 10:30:56;;;;;;;32.23;13.47;;;-0.20;99.90;;;;;;4994055;28;20275;-63
2024/01/13 10:33:24;;;;;;;31.67;13.07;;;-0.60;99.90;;;;;;4994318;28;20208;-62
2024/01/13 10:35:51;;;;;;;27.60;13.77;;;-0.40;99.90;;;;;;4994470;28;20294;-68
2024/01/13 10:38:18;;;;;;;24.97;12.47;;;-0.30;99.90;;;;;;4994324;28;20217;-63
2024/01/13 10:40:45;;;;;;;29.23;13.63;;;0.50;99.90;;;;;;4987088;28;20225;-64
2024/01/13 10:43:14;;;;;;;31.93;14.00;;;0.90;99.90;;;;;;4992551;28;20206;-63
2024/01/13 10:45:44;;;;;;;28.87;13.13;;;1.10;99.90;;;;;;5001010;28;20332;-62
2024/01/13 10:48:18;;;;;;;26.10;13.67;;;1.30;99.90;;;;;;5002671;28;20198;-61
2024/01/13 10:50:47;;;;;;;27.63;13.27;;;1.30;99.90;;;;;;4974656;28;20620;-65
2024/01/13 10:53:18;;;;;;;22.10;12.30;;;1.40;99.90;;;;;;4974941;28;20206;-67
2024/01/13 10:55:46;;;;;;;20.93;10.80;;;1.50;99.90;;;;;;5002233;28;20197;-65
2024/01/13 10:58:17;;;;;;;22.67;11.70;;;1.40;99.90;;;;;;5009965;28;20548;-64
2024/01/13 11:00:44;;;;;;;21.37;11.13;;;1.40;99.90;;;;;;5012041;28;20286;-65
2024/01/13 11:03:14;;;;;;;20.03;9.73;;;1.50;99.90;;;;;;5011866;28;20213;-65
2024/01/13 11:05:41;;;;;;;23.10;10.33;;;1.30;99.90;;;;;;4998347;28;20209;-64
2024/01/13 11:08:08;;;;;;;20.03;10.03;;;1.50;99.90;;;;;;4993711;28;20255;-68
2024/01/13 11:10:40;;;;;;;22.07;10.57;;;1.70;99.90;;;;;;5001227;28;20205;-60
2024/01/13 11:13:12;;;;;;;22.77;11.10;;;1.90;99.90;;;;;;4999230;28;20209;-65
2024/01/13 11:15:44;;;;;;;21.30;12.03;;;1.80;99.90;;;;;;4993716;28;20212;-67
2024/01/13 11:18:13;;;;;;;21.50;9.97;;;2.00;99.90;;;;;;4994080;28;20650;-63
2024/01/13 11:21:00;;;;;;;23.00;10.87;;;2.00;99.90;;;;;;4999339;28;20220;-64
2024/01/13 11:23:27;;;;;;;23.13;11.40;;;2.20;99.90;;;;;;5000482;28;20290;-65
2024/01/13 11:25:54;;;;;;;29.83;13.63;;;2.10;99.90;;;;;;4993592;28;20670;-65
2024/01/13 11:28:22;;;;;;;37.20;16.17;;;2.30;99.90;;;;;;4993847;28;20613;-63
2024/01/13 11:30:50;;;;;;;34.03;15.37;;;2.50;99.90;;;;;;5004060;28;20220;-66
2024/01/13 11:33:17;;;;;;;35.10;15.27;;;2.70;99.90;;;;;;4993365;28;20205;-58
2024/01/13 11:35:47;;;;;;;33.70;16.27;;;3.10;99.90;;;;;;4992230;28;20257;-59
2024/01/13 11:38:15;;;;;;;38.10;15.83;;;2.70;99.90;;;;;;4991016;28;20629;-59
2024/01/13 11:40:46;;;;;;;38.47;18.13;;;2.30;99.90;;;;;;4992384;28;20801;-59
2024/01/13 11:43:23;;;;;;;41.07;16.57;;;2.00;99.90;;;;;;4994287;28;20285;-58
2024/01/13 11:45:52;;;;;;;38.73;16.37;;;1.80;99.90;;;;;;5000692;28;20286;-59
2024/01/13 11:48:39;;;;;;;33.30;15.33;;;1.90;99.90;;;;;;4995463;28;20625;-59
2024/01/13 11:51:08;;;;;;;35.50;15.43;;;1.70;99.90;;;;;;4995270;28;20224;-58
2024/01/13 11:53:36;;;;;;;32.50;14.30;;;1.60;99.90;;;;;;4992461;28;20258;-59
2024/01/13 11:56:05;;;;;;;29.23;13.93;;;1.30;99.90;;;;;;4996712;28;20296;-66
2024/01/13 11:58:32;;;;;;;40.10;15.03;;;1.40;99.90;;;;;;5002865;28;20286;-67
2024/01/13 12:01:01;;;;;;;32.07;15.37;;;1.40;99.90;;;;;;5009925;28;20658;-63
2024/01/13 12:03:28;;;;;;;37.17;15.77;;;1.50;99.90;;;;;;5000996;28;20206;-63
2024/01/13 12:05:55;;;;;;;32.90;14.83;;;1.40;99.90;;;;;;4995461;28;20683;-62
2024/01/13 12:08:25;;;;;;;38.83;15.17;;;1.10;99.90;;;;;;5000484;28;20231;-64
2024/01/13 12:10:53;;;;;;;31.03;14.10;;;1.10;99.90;;;;;;4989774;28;20314;-65
2024/01/13 12:13:21;;;;;;;33.37;14.57;;;1.20;99.90;;;;;;4995562;28;20196;-66
2024/01/13 12:15:48;;;;;;;36.53;14.20;;;;;;;;;;4992705;28;20652;-65
2024/01/13 12:18:21;;;;;;;40.07;15.60;;;;;;;;;;4992622;28;20624;-66
2024/01/13 12:20:50;;;;;;;33.87;14.97;;;;;;;;;;4992221;28;20310;-68
2024/01/13 12:23:17;;;;;;;34.60;13.80;;;1.10;99.90;;;;;;4998556;28;20731;-67
2024/01/13 12:25:45;;;;;;;36.17;15.23;;;1.30;99.90;;;;;;4992800;28;20678;-65
2024/01/13 12:28:12;;;;;;;37.80;15.60;;;1.10;99.90;;;;;;4997876;28;20351;-68
2024/01/13 12:30:39;;;;;;;35.87;13.67;;;1.00;99.90;;;;;;4991826;28;20261;-64
2024/01/13 12:33:07;;;;;;;33.10;14.00;;;1.20;99.90;;;;;;4992639;28;20295;-64
2024/01/13 12:35:35;;;;;;;31.63;14.83;;;1.10;99.90;;;;;;4996756;28;20236;-63
2024/01/13 12:38:05;;;;;;;32.80;14.50;;;1.20;99.90;;;;;;4997609;28;20578;-59
2024/01/13 12:40:32;;;;;;;36.83;14.13;;;1.20;99.90;;;;;;4995289;28;20225;-59
2024/01/13 12:43:00;;;;;;;29.17;14.97;;;1.10;99.90;;;;;;4999517;28;20255;-59
2024/01/13 12:45:27;;;;;;;34.27;15.10;;;0.90;99.90;;;;;;4999504;28;20214;-68
2024/01/13 12:47:54;;;;;;;31.77;14.70;;;1.00;99.90;;;;;;5003478;28;20201;-73